sensor_id;sensor_type;location;lat;lon;timestamp;temperature;humidity
27072;DHT22;14613;46.308;25.288;2023-07-30T00:01:12;19.10;77.30
27072;DHT22;14613;46.308;25.288;2023-07-30T00:03:38;19.10;77.30
27072;DHT22;14613;46.308;25.288;2023-07-30T00:06:04;19.10;77.30
27072;DHT22;14613;46.308;25.288;2023-07-30T00:08:29;19.10;77.30
27072;DHT22;14613;46.308;25.288;2023-07-30T00:10:58;19.10;77.30
27072;DHT22;14613;46.308;25.288;2023-07-30T00:13:24;19.10;77.50
27072;DHT22;14613;46.308;25.288;2023-07-30T00:15:50;19.10;77.50
27072;DHT22;14613;46.308;25.288;2023-07-30T00:18:16;19.10;77.60
27072;DHT22;14613;46.308;25.288;2023-07-30T00:20:43;19.10;77.60
27072;DHT22;14613;46.308;25.288;2023-07-30T00:23:08;19.00;77.60
27072;DHT22;14613;46.308;25.288;2023-07-30T00:25:34;19.00;77.60
27072;DHT22;14613;46.308;25.288;2023-07-30T00:28:00;19.00;77.60
27072;DHT22;14613;46.308;25.288;2023-07-30T00:30:25;19.00;77.60
27072;DHT22;14613;46.308;25.288;2023-07-30T00:32:51;19.00;77.60
27072;DHT22;14613;46.308;25.288;2023-07-30T00:35:17;19.00;77.60
27072;DHT22;14613;46.308;25.288;2023-07-30T00:37:43;19.00;77.60
27072;DHT22;14613;46.308;25.288;2023-07-30T00:40:09;18.90;77.60
27072;DHT22;14613;46.308;25.288;2023-07-30T00:42:35;18.90;77.70
27072;DHT22;14613;46.308;25.288;2023-07-30T00:45:01;18.90;77.80
27072;DHT22;14613;46.308;25.288;2023-07-30T00:47:26;18.90;77.90
27072;DHT22;14613;46.308;25.288;2023-07-30T00:49:53;18.80;77.90
27072;DHT22;14613;46.308;25.288;2023-07-30T00:52:21;18.70;77.90
27072;DHT22;14613;46.308;25.288;2023-07-30T00:54:50;18.70;78.10
27072;DHT22;14613;46.308;25.288;2023-07-30T00:57:18;18.70;78.20
27072;DHT22;14613;46.308;25.288;2023-07-30T00:59:45;18.70;78.30
27072;DHT22;14613;46.308;25.288;2023-07-30T01:02:12;18.60;78.20
27072;DHT22;14613;46.308;25.288;2023-07-30T01:04:38;18.60;78.40
27072;DHT22;14613;46.308;25.288;2023-07-30T01:07:05;18.50;78.40
27072;DHT22;14613;46.308;25.288;2023-07-30T01:09:32;18.50;78.50
27072;DHT22;14613;46.308;25.288;2023-07-30T01:11:59;18.50;78.60
27072;DHT22;14613;46.308;25.288;2023-07-30T01:14:26;18.40;78.70
27072;DHT22;14613;46.308;25.288;2023-07-30T01:16:52;18.40;78.90
27072;DHT22;14613;46.308;25.288;2023-07-30T01:19:18;18.30;79.00
27072;DHT22;14613;46.308;25.288;2023-07-30T01:21:44;18.30;79.10
27072;DHT22;14613;46.308;25.288;2023-07-30T01:24:10;18.20;79.10
27072;DHT22;14613;46.308;25.288;2023-07-30T01:26:43;18.20;79.10
27072;DHT22;14613;46.308;25.288;2023-07-30T01:29:25;18.20;79.20
27072;DHT22;14613;46.308;25.288;2023-07-30T01:31:56;18.20;79.30
27072;DHT22;14613;46.308;25.288;2023-07-30T01:34:24;18.20;79.30
27072;DHT22;14613;46.308;25.288;2023-07-30T01:36:52;18.10;79.30
27072;DHT22;14613;46.308;25.288;2023-07-30T01:39:18;18.10;79.40
27072;DHT22;14613;46.308;25.288;2023-07-30T01:41:44;18.10;79.50
27072;DHT22;14613;46.308;25.288;2023-07-30T01:44:10;18.10;79.50
27072;DHT22;14613;46.308;25.288;2023-07-30T01:46:36;18.10;79.60
27072;DHT22;14613;46.308;25.288;2023-07-30T01:49:01;18.10;79.60
27072;DHT22;14613;46.308;25.288;2023-07-30T01:51:27;18.00;79.60
27072;DHT22;14613;46.308;25.288;2023-07-30T01:53:53;18.00;79.70
27072;DHT22;14613;46.308;25.288;2023-07-30T01:56:18;18.00;79.70
27072;DHT22;14613;46.308;25.288;2023-07-30T01:58:44;17.90;79.80
27072;DHT22;14613;46.308;25.288;2023-07-30T02:01:10;17.90;79.80
27072;DHT22;14613;46.308;25.288;2023-07-30T02:03:35;17.90;79.90
27072;DHT22;14613;46.308;25.288;2023-07-30T02:06:01;17.90;80.00
27072;DHT22;14613;46.308;25.288;2023-07-30T02:08:27;17.90;80.00
27072;DHT22;14613;46.308;25.288;2023-07-30T02:10:57;17.80;80.80
27072;DHT22;14613;46.308;25.288;2023-07-30T02:13:24;17.80;80.20
27072;DHT22;14613;46.308;25.288;2023-07-30T02:15:50;17.80;80.20
27072;DHT22;14613;46.308;25.288;2023-07-30T02:18:15;17.80;80.30
27072;DHT22;14613;46.308;25.288;2023-07-30T02:20:41;17.80;80.20
27072;DHT22;14613;46.308;25.288;2023-07-30T02:23:07;17.80;80.20
27072;DHT22;14613;46.308;25.288;2023-07-30T02:25:34;17.80;80.10
27072;DHT22;14613;46.308;25.288;2023-07-30T02:28:00;17.80;80.10
27072;DHT22;14613;46.308;25.288;2023-07-30T02:30:27;17.80;80.20
27072;DHT22;14613;46.308;25.288;2023-07-30T02:32:52;17.80;80.20
27072;DHT22;14613;46.308;25.288;2023-07-30T02:35:18;17.80;80.10
27072;DHT22;14613;46.308;25.288;2023-07-30T02:37:44;17.80;80.20
27072;DHT22;14613;46.308;25.288;2023-07-30T02:40:10;17.70;80.20
27072;DHT22;14613;46.308;25.288;2023-07-30T02:42:36;17.70;80.20
27072;DHT22;14613;46.308;25.288;2023-07-30T02:45:02;17.70;80.30
27072;DHT22;14613;46.308;25.288;2023-07-30T02:47:28;17.70;80.40
27072;DHT22;14613;46.308;25.288;2023-07-30T02:49:54;17.70;80.30
27072;DHT22;14613;46.308;25.288;2023-07-30T02:52:20;17.70;80.30
27072;DHT22;14613;46.308;25.288;2023-07-30T02:54:45;17.70;80.30
27072;DHT22;14613;46.308;25.288;2023-07-30T02:57:11;17.70;80.30
27072;DHT22;14613;46.308;25.288;2023-07-30T02:59:38;17.70;80.30
27072;DHT22;14613;46.308;25.288;2023-07-30T03:02:04;17.70;80.30
27072;DHT22;14613;46.308;25.288;2023-07-30T03:04:33;17.70;80.30
27072;DHT22;14613;46.308;25.288;2023-07-30T03:06:59;17.80;80.40
27072;DHT22;14613;46.308;25.288;2023-07-30T03:09:25;17.80;80.30
27072;DHT22;14613;46.308;25.288;2023-07-30T03:11:50;17.80;80.20
27072;DHT22;14613;46.308;25.288;2023-07-30T03:14:16;17.90;80.20
27072;DHT22;14613;46.308;25.288;2023-07-30T03:16:49;17.90;80.20
27072;DHT22;14613;46.308;25.288;2023-07-30T03:19:15;17.90;80.30
27072;DHT22;14613;46.308;25.288;2023-07-30T03:21:41;18.00;80.50
27072;DHT22;14613;46.308;25.288;2023-07-30T03:24:07;18.00;80.60
27072;DHT22;14613;46.308;25.288;2023-07-30T03:26:33;18.10;80.60
27072;DHT22;14613;46.308;25.288;2023-07-30T03:28:58;18.20;80.60
27072;DHT22;14613;46.308;25.288;2023-07-30T03:31:24;18.30;80.70
27072;DHT22;14613;46.308;25.288;2023-07-30T03:33:50;18.40;80.50
27072;DHT22;14613;46.308;25.288;2023-07-30T03:36:16;18.50;80.50
27072;DHT22;14613;46.308;25.288;2023-07-30T03:38:42;18.50;80.40
27072;DHT22;14613;46.308;25.288;2023-07-30T03:41:09;18.50;80.20
27072;DHT22;14613;46.308;25.288;2023-07-30T03:43:36;18.60;80.20
27072;DHT22;14613;46.308;25.288;2023-07-30T03:46:02;18.60;80.20
27072;DHT22;14613;46.308;25.288;2023-07-30T03:48:27;18.60;80.20
27072;DHT22;14613;46.308;25.288;2023-07-30T03:50:54;18.60;80.10
27072;DHT22;14613;46.308;25.288;2023-07-30T03:53:20;18.60;80.10
27072;DHT22;14613;46.308;25.288;2023-07-30T03:55:46;18.60;80.00
27072;DHT22;14613;46.308;25.288;2023-07-30T03:58:12;18.70;80.10
27072;DHT22;14613;46.308;25.288;2023-07-30T04:00:38;18.70;80.20
27072;DHT22;14613;46.308;25.288;2023-07-30T04:03:03;18.80;80.80
27072;DHT22;14613;46.308;25.288;2023-07-30T04:05:29;19.00;80.90
27072;DHT22;14613;46.308;25.288;2023-07-30T04:07:55;19.30;80.60
27072;DHT22;14613;46.308;25.288;2023-07-30T04:10:21;19.40;80.00
27072;DHT22;14613;46.308;25.288;2023-07-30T04:12:47;19.50;79.70
27072;DHT22;14613;46.308;25.288;2023-07-30T04:15:14;19.50;79.60
27072;DHT22;14613;46.308;25.288;2023-07-30T04:17:39;19.50;79.60
27072;DHT22;14613;46.308;25.288;2023-07-30T04:20:05;19.50;79.70
27072;DHT22;14613;46.308;25.288;2023-07-30T04:22:32;19.50;79.70
27072;DHT22;14613;46.308;25.288;2023-07-30T04:24:58;19.60;80.00
27072;DHT22;14613;46.308;25.288;2023-07-30T04:27:24;19.70;80.10
27072;DHT22;14613;46.308;25.288;2023-07-30T04:29:49;19.80;80.10
27072;DHT22;14613;46.308;25.288;2023-07-30T04:32:15;20.10;80.70
27072;DHT22;14613;46.308;25.288;2023-07-30T04:34:41;20.60;80.70
27072;DHT22;14613;46.308;25.288;2023-07-30T04:37:06;21.10;80.30
27072;DHT22;14613;46.308;25.288;2023-07-30T04:39:33;21.70;79.70
27072;DHT22;14613;46.308;25.288;2023-07-30T04:41:58;22.20;78.90
27072;DHT22;14613;46.308;25.288;2023-07-30T04:44:25;22.70;78.10
27072;DHT22;14613;46.308;25.288;2023-07-30T04:46:51;23.10;77.00
27072;DHT22;14613;46.308;25.288;2023-07-30T04:49:16;23.50;76.40
27072;DHT22;14613;46.308;25.288;2023-07-30T04:51:42;23.70;75.50
27072;DHT22;14613;46.308;25.288;2023-07-30T04:54:08;24.00;74.60
27072;DHT22;14613;46.308;25.288;2023-07-30T04:56:34;24.20;74.30
27072;DHT22;14613;46.308;25.288;2023-07-30T04:59:00;24.40;73.90
27072;DHT22;14613;46.308;25.288;2023-07-30T05:01:26;24.70;73.40
27072;DHT22;14613;46.308;25.288;2023-07-30T05:03:52;24.80;72.90
27072;DHT22;14613;46.308;25.288;2023-07-30T05:06:18;25.00;72.50
27072;DHT22;14613;46.308;25.288;2023-07-30T05:08:44;25.20;72.00
27072;DHT22;14613;46.308;25.288;2023-07-30T05:11:09;25.40;71.60
27072;DHT22;14613;46.308;25.288;2023-07-30T05:13:35;25.50;70.90
27072;DHT22;14613;46.308;25.288;2023-07-30T05:16:01;25.60;70.50
27072;DHT22;14613;46.308;25.288;2023-07-30T05:18:27;25.70;70.20
27072;DHT22;14613;46.308;25.288;2023-07-30T05:20:53;25.90;70.20
27072;DHT22;14613;46.308;25.288;2023-07-30T05:23:19;26.10;70.00
27072;DHT22;14613;46.308;25.288;2023-07-30T05:25:45;26.30;69.50
27072;DHT22;14613;46.308;25.288;2023-07-30T05:28:11;26.60;69.20
27072;DHT22;14613;46.308;25.288;2023-07-30T05:30:37;26.90;68.80
27072;DHT22;14613;46.308;25.288;2023-07-30T05:33:03;27.10;68.30
27072;DHT22;14613;46.308;25.288;2023-07-30T05:35:28;27.40;67.90
27072;DHT22;14613;46.308;25.288;2023-07-30T05:37:54;27.60;67.50
27072;DHT22;14613;46.308;25.288;2023-07-30T05:40:20;27.70;66.40
27072;DHT22;14613;46.308;25.288;2023-07-30T05:42:46;27.80;66.00
27072;DHT22;14613;46.308;25.288;2023-07-30T05:45:12;27.90;65.80
27072;DHT22;14613;46.308;25.288;2023-07-30T05:47:38;28.10;65.70
27072;DHT22;14613;46.308;25.288;2023-07-30T05:50:04;28.20;65.30
27072;DHT22;14613;46.308;25.288;2023-07-30T05:52:30;28.40;64.70
27072;DHT22;14613;46.308;25.288;2023-07-30T05:54:56;28.40;64.00
27072;DHT22;14613;46.308;25.288;2023-07-30T05:57:21;28.50;64.00
27072;DHT22;14613;46.308;25.288;2023-07-30T05:59:47;28.50;63.70
27072;DHT22;14613;46.308;25.288;2023-07-30T06:02:13;28.70;63.60
27072;DHT22;14613;46.308;25.288;2023-07-30T06:04:39;28.90;63.20
27072;DHT22;14613;46.308;25.288;2023-07-30T06:07:05;29.00;62.60
27072;DHT22;14613;46.308;25.288;2023-07-30T06:09:31;29.10;62.50
27072;DHT22;14613;46.308;25.288;2023-07-30T06:11:57;29.30;62.20
27072;DHT22;14613;46.308;25.288;2023-07-30T06:14:24;29.40;61.90
27072;DHT22;14613;46.308;25.288;2023-07-30T06:16:50;29.60;61.60
27072;DHT22;14613;46.308;25.288;2023-07-30T06:19:16;29.80;61.40
27072;DHT22;14613;46.308;25.288;2023-07-30T06:21:42;29.90;61.10
27072;DHT22;14613;46.308;25.288;2023-07-30T06:24:08;30.10;60.80
27072;DHT22;14613;46.308;25.288;2023-07-30T06:26:33;30.20;60.30
27072;DHT22;14613;46.308;25.288;2023-07-30T06:28:59;30.20;60.00
27072;DHT22;14613;46.308;25.288;2023-07-30T06:31:25;30.20;60.00
27072;DHT22;14613;46.308;25.288;2023-07-30T06:33:50;30.10;59.90
27072;DHT22;14613;46.308;25.288;2023-07-30T06:36:16;30.10;59.80
27072;DHT22;14613;46.308;25.288;2023-07-30T06:38:42;30.10;59.80
27072;DHT22;14613;46.308;25.288;2023-07-30T06:41:07;30.00;59.60
27072;DHT22;14613;46.308;25.288;2023-07-30T06:43:33;30.00;59.50
27072;DHT22;14613;46.308;25.288;2023-07-30T06:45:59;29.90;60.30
27072;DHT22;14613;46.308;25.288;2023-07-30T06:48:25;29.90;59.70
27072;DHT22;14613;46.308;25.288;2023-07-30T06:50:50;29.90;59.70
27072;DHT22;14613;46.308;25.288;2023-07-30T06:53:16;30.00;59.70
27072;DHT22;14613;46.308;25.288;2023-07-30T06:55:42;30.10;59.60
27072;DHT22;14613;46.308;25.288;2023-07-30T06:58:08;30.10;59.40
27072;DHT22;14613;46.308;25.288;2023-07-30T07:00:34;30.10;59.40
27072;DHT22;14613;46.308;25.288;2023-07-30T07:03:00;30.10;59.50
27072;DHT22;14613;46.308;25.288;2023-07-30T07:05:26;30.20;59.50
27072;DHT22;14613;46.308;25.288;2023-07-30T07:07:51;30.40;59.50
27072;DHT22;14613;46.308;25.288;2023-07-30T07:10:17;30.50;59.40
27072;DHT22;14613;46.308;25.288;2023-07-30T07:12:43;30.70;59.40
27072;DHT22;14613;46.308;25.288;2023-07-30T07:15:09;30.90;59.20
27072;DHT22;14613;46.308;25.288;2023-07-30T07:17:34;31.10;59.10
27072;DHT22;14613;46.308;25.288;2023-07-30T07:20:01;31.40;59.00
27072;DHT22;14613;46.308;25.288;2023-07-30T07:22:29;31.60;58.80
27072;DHT22;14613;46.308;25.288;2023-07-30T07:24:54;31.90;58.60
27072;DHT22;14613;46.308;25.288;2023-07-30T07:27:20;32.20;58.10
27072;DHT22;14613;46.308;25.288;2023-07-30T07:29:48;32.30;57.90
27072;DHT22;14613;46.308;25.288;2023-07-30T07:32:14;32.50;57.70
27072;DHT22;14613;46.308;25.288;2023-07-30T07:34:40;32.70;57.50
27072;DHT22;14613;46.308;25.288;2023-07-30T07:37:05;32.90;57.30
27072;DHT22;14613;46.308;25.288;2023-07-30T07:39:32;33.10;57.10
27072;DHT22;14613;46.308;25.288;2023-07-30T07:41:58;33.30;56.90
27072;DHT22;14613;46.308;25.288;2023-07-30T07:44:24;33.50;56.60
27072;DHT22;14613;46.308;25.288;2023-07-30T07:46:50;33.60;56.10
27072;DHT22;14613;46.308;25.288;2023-07-30T07:49:15;33.60;55.80
27072;DHT22;14613;46.308;25.288;2023-07-30T07:51:41;33.50;55.70
27072;DHT22;14613;46.308;25.288;2023-07-30T07:54:07;33.50;55.80
27072;DHT22;14613;46.308;25.288;2023-07-30T07:56:33;33.50;55.60
27072;DHT22;14613;46.308;25.288;2023-07-30T07:58:58;33.60;55.60
27072;DHT22;14613;46.308;25.288;2023-07-30T08:01:24;33.60;55.40
27072;DHT22;14613;46.308;25.288;2023-07-30T08:03:51;33.70;55.30
27072;DHT22;14613;46.308;25.288;2023-07-30T08:06:16;33.70;54.90
27072;DHT22;14613;46.308;25.288;2023-07-30T08:08:42;33.70;55.10
27072;DHT22;14613;46.308;25.288;2023-07-30T08:11:08;33.90;55.20
27072;DHT22;14613;46.308;25.288;2023-07-30T08:13:35;34.00;55.10
27072;DHT22;14613;46.308;25.288;2023-07-30T08:16:01;34.20;55.00
27072;DHT22;14613;46.308;25.288;2023-07-30T08:18:27;34.30;54.80
27072;DHT22;14613;46.308;25.288;2023-07-30T08:20:53;34.40;54.70
27072;DHT22;14613;46.308;25.288;2023-07-30T08:23:19;34.60;54.50
27072;DHT22;14613;46.308;25.288;2023-07-30T08:25:45;34.60;54.30
27072;DHT22;14613;46.308;25.288;2023-07-30T08:28:11;34.70;54.10
27072;DHT22;14613;46.308;25.288;2023-07-30T08:30:37;34.70;54.00
27072;DHT22;14613;46.308;25.288;2023-07-30T08:33:02;34.70;53.80
27072;DHT22;14613;46.308;25.288;2023-07-30T08:35:28;34.70;53.80
27072;DHT22;14613;46.308;25.288;2023-07-30T08:37:54;34.80;53.80
27072;DHT22;14613;46.308;25.288;2023-07-30T08:40:24;34.80;53.70
27072;DHT22;14613;46.308;25.288;2023-07-30T08:42:51;34.90;53.70
27072;DHT22;14613;46.308;25.288;2023-07-30T08:45:17;34.90;53.40
27072;DHT22;14613;46.308;25.288;2023-07-30T08:47:43;35.00;53.30
27072;DHT22;14613;46.308;25.288;2023-07-30T08:50:10;35.00;53.10
27072;DHT22;14613;46.308;25.288;2023-07-30T08:52:36;35.00;53.00
27072;DHT22;14613;46.308;25.288;2023-07-30T08:55:03;34.90;53.10
27072;DHT22;14613;46.308;25.288;2023-07-30T08:57:30;34.90;53.10
27072;DHT22;14613;46.308;25.288;2023-07-30T09:00:16;34.80;53.20
27072;DHT22;14613;46.308;25.288;2023-07-30T09:02:48;34.80;53.30
27072;DHT22;14613;46.308;25.288;2023-07-30T09:05:13;35.00;53.50
27072;DHT22;14613;46.308;25.288;2023-07-30T09:07:39;35.00;53.00
27072;DHT22;14613;46.308;25.288;2023-07-30T09:10:06;35.00;52.90
27072;DHT22;14613;46.308;25.288;2023-07-30T09:12:33;35.10;52.90
27072;DHT22;14613;46.308;25.288;2023-07-30T09:14:59;35.20;52.70
27072;DHT22;14613;46.308;25.288;2023-07-30T09:17:25;35.30;52.60
27072;DHT22;14613;46.308;25.288;2023-07-30T09:19:52;35.40;52.50
27072;DHT22;14613;46.308;25.288;2023-07-30T09:22:28;35.40;52.30
27072;DHT22;14613;46.308;25.288;2023-07-30T09:24:55;35.50;52.40
27072;DHT22;14613;46.308;25.288;2023-07-30T09:27:25;35.70;52.30
27072;DHT22;14613;46.308;25.288;2023-07-30T09:30:00;35.80;52.10
27072;DHT22;14613;46.308;25.288;2023-07-30T09:32:30;35.90;51.90
27072;DHT22;14613;46.308;25.288;2023-07-30T09:35:04;35.90;51.70
27072;DHT22;14613;46.308;25.288;2023-07-30T09:37:35;35.90;51.80
27072;DHT22;14613;46.308;25.288;2023-07-30T09:40:01;36.00;52.60
27072;DHT22;14613;46.308;25.288;2023-07-30T09:42:28;36.00;51.90
27072;DHT22;14613;46.308;25.288;2023-07-30T09:44:53;36.10;51.70
27072;DHT22;14613;46.308;25.288;2023-07-30T09:47:26;36.20;51.50
27072;DHT22;14613;46.308;25.288;2023-07-30T09:49:52;36.20;51.40
27072;DHT22;14613;46.308;25.288;2023-07-30T09:52:20;36.20;51.30
27072;DHT22;14613;46.308;25.288;2023-07-30T09:54:46;36.20;51.30
27072;DHT22;14613;46.308;25.288;2023-07-30T09:57:13;36.20;51.40
27072;DHT22;14613;46.308;25.288;2023-07-30T09:59:38;36.30;51.20
27072;DHT22;14613;46.308;25.288;2023-07-30T10:02:05;36.30;50.90
27072;DHT22;14613;46.308;25.288;2023-07-30T10:04:33;36.00;50.50
27072;DHT22;14613;46.308;25.288;2023-07-30T10:07:04;35.70;50.70
27072;DHT22;14613;46.308;25.288;2023-07-30T10:09:37;35.70;51.00
27072;DHT22;14613;46.308;25.288;2023-07-30T10:12:20;35.70;51.00
27072;DHT22;14613;46.308;25.288;2023-07-30T10:14:47;35.80;51.00
27072;DHT22;14613;46.308;25.288;2023-07-30T10:17:12;36.00;50.90
27072;DHT22;14613;46.308;25.288;2023-07-30T10:19:38;36.10;50.90
27072;DHT22;14613;46.308;25.288;2023-07-30T10:24:39;36.40;50.70
27072;DHT22;14613;46.308;25.288;2023-07-30T10:27:07;36.50;50.50
27072;DHT22;14613;46.308;25.288;2023-07-30T10:29:35;36.60;50.30
27072;DHT22;14613;46.308;25.288;2023-07-30T10:32:01;36.60;50.10
27072;DHT22;14613;46.308;25.288;2023-07-30T10:34:48;36.50;49.80
27072;DHT22;14613;46.308;25.288;2023-07-30T10:37:24;36.30;50.00
27072;DHT22;14613;46.308;25.288;2023-07-30T10:39:51;36.40;50.00
27072;DHT22;14613;46.308;25.288;2023-07-30T10:42:16;36.30;50.00
27072;DHT22;14613;46.308;25.288;2023-07-30T10:44:44;36.30;50.00
27072;DHT22;14613;46.308;25.288;2023-07-30T10:47:11;36.40;50.00
27072;DHT22;14613;46.308;25.288;2023-07-30T10:49:38;36.50;49.90
27072;DHT22;14613;46.308;25.288;2023-07-30T10:52:04;36.60;49.70
27072;DHT22;14613;46.308;25.288;2023-07-30T10:54:33;36.70;49.60
27072;DHT22;14613;46.308;25.288;2023-07-30T10:57:00;36.80;49.60
27072;DHT22;14613;46.308;25.288;2023-07-30T10:59:25;36.70;49.40
27072;DHT22;14613;46.308;25.288;2023-07-30T11:01:52;36.70;49.50
27072;DHT22;14613;46.308;25.288;2023-07-30T11:04:19;36.70;49.40
27072;DHT22;14613;46.308;25.288;2023-07-30T11:06:47;36.70;49.40
27072;DHT22;14613;46.308;25.288;2023-07-30T11:09:23;36.60;49.30
27072;DHT22;14613;46.308;25.288;2023-07-30T11:11:50;36.60;49.40
27072;DHT22;14613;46.308;25.288;2023-07-30T11:14:21;36.60;49.50
27072;DHT22;14613;46.308;25.288;2023-07-30T11:19:15;36.70;49.50
27072;DHT22;14613;46.308;25.288;2023-07-30T11:21:48;36.80;49.30
27072;DHT22;14613;46.308;25.288;2023-07-30T11:24:14;36.90;49.10
27072;DHT22;14613;46.308;25.288;2023-07-30T11:26:41;36.90;49.00
27072;DHT22;14613;46.308;25.288;2023-07-30T11:29:20;36.80;48.90
27072;DHT22;14613;46.308;25.288;2023-07-30T11:31:46;36.60;48.90
27072;DHT22;14613;46.308;25.288;2023-07-30T11:34:16;36.50;49.10
27072;DHT22;14613;46.308;25.288;2023-07-30T11:36:44;36.30;49.10
27072;DHT22;14613;46.308;25.288;2023-07-30T11:39:10;36.20;49.40
27072;DHT22;14613;46.308;25.288;2023-07-30T11:41:36;36.00;49.30
27072;DHT22;14613;46.308;25.288;2023-07-30T11:44:03;35.80;49.30
27072;DHT22;14613;46.308;25.288;2023-07-30T11:46:29;35.50;49.20
27072;DHT22;14613;46.308;25.288;2023-07-30T11:49:14;35.40;49.40
27072;DHT22;14613;46.308;25.288;2023-07-30T11:51:42;35.30;49.40
27072;DHT22;14613;46.308;25.288;2023-07-30T11:54:21;35.20;49.50
27072;DHT22;14613;46.308;25.288;2023-07-30T11:56:54;35.10;49.60
27072;DHT22;14613;46.308;25.288;2023-07-30T11:59:20;35.00;49.60
27072;DHT22;14613;46.308;25.288;2023-07-30T12:01:49;35.00;49.70
27072;DHT22;14613;46.308;25.288;2023-07-30T12:04:15;35.10;49.70
27072;DHT22;14613;46.308;25.288;2023-07-30T12:06:49;35.00;49.60
27072;DHT22;14613;46.308;25.288;2023-07-30T12:09:17;35.00;49.50
27072;DHT22;14613;46.308;25.288;2023-07-30T12:11:57;35.00;49.70
27072;DHT22;14613;46.308;25.288;2023-07-30T12:14:28;35.00;49.60
27072;DHT22;14613;46.308;25.288;2023-07-30T12:16:59;35.00;49.50
27072;DHT22;14613;46.308;25.288;2023-07-30T12:19:24;35.10;49.50
27072;DHT22;14613;46.308;25.288;2023-07-30T12:21:50;35.20;49.40
27072;DHT22;14613;46.308;25.288;2023-07-30T12:24:16;35.20;49.20
27072;DHT22;14613;46.308;25.288;2023-07-30T12:26:42;35.20;48.90
27072;DHT22;14613;46.308;25.288;2023-07-30T12:29:07;35.10;48.80
27072;DHT22;14613;46.308;25.288;2023-07-30T12:31:33;34.90;48.70
27072;DHT22;14613;46.308;25.288;2023-07-30T12:33:59;34.70;48.70
27072;DHT22;14613;46.308;25.288;2023-07-30T12:36:25;34.50;48.70
27072;DHT22;14613;46.308;25.288;2023-07-30T12:38:53;34.40;48.70
27072;DHT22;14613;46.308;25.288;2023-07-30T12:41:22;34.30;48.90
27072;DHT22;14613;46.308;25.288;2023-07-30T12:43:55;34.40;49.20
27072;DHT22;14613;46.308;25.288;2023-07-30T12:46:25;34.40;49.20
27072;DHT22;14613;46.308;25.288;2023-07-30T12:48:55;34.60;49.30
27072;DHT22;14613;46.308;25.288;2023-07-30T12:51:22;34.80;49.30
27072;DHT22;14613;46.308;25.288;2023-07-30T12:53:48;35.00;49.20
27072;DHT22;14613;46.308;25.288;2023-07-30T12:56:13;35.20;48.90
27072;DHT22;14613;46.308;25.288;2023-07-30T12:58:41;35.30;48.60
27072;DHT22;14613;46.308;25.288;2023-07-30T13:01:06;35.40;48.40
27072;DHT22;14613;46.308;25.288;2023-07-30T13:03:32;35.30;48.30
27072;DHT22;14613;46.308;25.288;2023-07-30T13:05:58;35.30;49.10
27072;DHT22;14613;46.308;25.288;2023-07-30T13:08:24;35.40;48.50
27072;DHT22;14613;46.308;25.288;2023-07-30T13:10:50;35.50;48.50
27072;DHT22;14613;46.308;25.288;2023-07-30T13:13:15;35.70;48.20
27072;DHT22;14613;46.308;25.288;2023-07-30T13:15:41;35.70;47.80
27072;DHT22;14613;46.308;25.288;2023-07-30T13:18:07;35.60;47.60
27072;DHT22;14613;46.308;25.288;2023-07-30T13:20:33;35.40;47.40
27072;DHT22;14613;46.308;25.288;2023-07-30T13:22:58;35.30;47.70
27072;DHT22;14613;46.308;25.288;2023-07-30T13:25:24;35.40;48.00
27072;DHT22;14613;46.308;25.288;2023-07-30T13:27:50;35.50;48.60
27072;DHT22;14613;46.308;25.288;2023-07-30T13:30:16;35.60;47.90
27072;DHT22;14613;46.308;25.288;2023-07-30T13:32:41;35.70;47.70
27072;DHT22;14613;46.308;25.288;2023-07-30T13:35:07;35.60;47.60
27072;DHT22;14613;46.308;25.288;2023-07-30T13:37:33;35.60;47.60
27072;DHT22;14613;46.308;25.288;2023-07-30T13:39:59;35.50;47.60
27072;DHT22;14613;46.308;25.288;2023-07-30T13:42:25;35.40;47.80
27072;DHT22;14613;46.308;25.288;2023-07-30T13:44:51;35.20;47.90
27072;DHT22;14613;46.308;25.288;2023-07-30T13:47:17;35.10;48.00
27072;DHT22;14613;46.308;25.288;2023-07-30T13:49:42;35.00;48.00
27072;DHT22;14613;46.308;25.288;2023-07-30T13:52:08;35.00;48.20
27072;DHT22;14613;46.308;25.288;2023-07-30T13:54:34;35.00;48.30
27072;DHT22;14613;46.308;25.288;2023-07-30T13:57:03;35.00;48.20
27072;DHT22;14613;46.308;25.288;2023-07-30T13:59:30;35.00;48.30
27072;DHT22;14613;46.308;25.288;2023-07-30T14:01:56;35.00;48.40
27072;DHT22;14613;46.308;25.288;2023-07-30T14:04:22;35.00;48.40
27072;DHT22;14613;46.308;25.288;2023-07-30T14:06:47;35.00;48.50
27072;DHT22;14613;46.308;25.288;2023-07-30T14:09:13;35.00;48.50
27072;DHT22;14613;46.308;25.288;2023-07-30T14:11:39;34.90;48.40
27072;DHT22;14613;46.308;25.288;2023-07-30T14:14:08;34.80;48.30
27072;DHT22;14613;46.308;25.288;2023-07-30T14:16:34;34.70;48.40
27072;DHT22;14613;46.308;25.288;2023-07-30T14:19:01;34.60;48.50
27072;DHT22;14613;46.308;25.288;2023-07-30T14:21:27;34.50;48.50
27072;DHT22;14613;46.308;25.288;2023-07-30T14:23:53;34.40;48.60
27072;DHT22;14613;46.308;25.288;2023-07-30T14:26:19;34.40;48.70
27072;DHT22;14613;46.308;25.288;2023-07-30T14:28:44;34.30;48.70
27072;DHT22;14613;46.308;25.288;2023-07-30T14:31:11;34.20;48.80
27072;DHT22;14613;46.308;25.288;2023-07-30T14:33:36;34.10;48.90
27072;DHT22;14613;46.308;25.288;2023-07-30T14:36:03;34.10;49.00
27072;DHT22;14613;46.308;25.288;2023-07-30T14:38:29;34.00;49.00
27072;DHT22;14613;46.308;25.288;2023-07-30T14:40:56;33.90;49.00
27072;DHT22;14613;46.308;25.288;2023-07-30T14:43:22;33.80;49.10
27072;DHT22;14613;46.308;25.288;2023-07-30T14:45:49;33.70;49.20
27072;DHT22;14613;46.308;25.288;2023-07-30T14:48:15;33.50;49.30
27072;DHT22;14613;46.308;25.288;2023-07-30T14:50:40;33.40;49.40
27072;DHT22;14613;46.308;25.288;2023-07-30T14:53:06;33.30;49.60
27072;DHT22;14613;46.308;25.288;2023-07-30T14:55:32;33.20;49.70
27072;DHT22;14613;46.308;25.288;2023-07-30T14:57:58;33.10;49.80
27072;DHT22;14613;46.308;25.288;2023-07-30T15:00:23;33.00;50.00
27072;DHT22;14613;46.308;25.288;2023-07-30T15:02:51;32.90;50.10
27072;DHT22;14613;46.308;25.288;2023-07-30T15:05:18;32.90;50.30
27072;DHT22;14613;46.308;25.288;2023-07-30T15:07:44;32.80;50.30
27072;DHT22;14613;46.308;25.288;2023-07-30T15:10:10;32.70;50.30
27072;DHT22;14613;46.308;25.288;2023-07-30T15:12:36;32.70;50.50
27072;DHT22;14613;46.308;25.288;2023-07-30T15:15:03;32.60;50.60
27072;DHT22;14613;46.308;25.288;2023-07-30T15:17:30;32.60;50.80